Gunilla — SERW — position and weather

sailwx.info

Track history (hours):
 
Tides and Currents Weather Stations Pressure Air Temp Water Temp Dewpoint Dewpoint Depression Visibility Wind Speed Wind Dir Waves Ship Positions

Gunilla (Sweden)

Ship's website: http://www.gunilla.nu/engelsk/frameset_english.htm

Last reported at 2017-Sep-19 22:24 UTC. Time now 2017-Sep-22 17:04 UTC.
Position N 48°38' W 005°15'.

Length 49.4 m; beam 8.4 m; draft 2.7 m.

Type: Sailing vessel. MMSI: 265318000.

Date/timePositionNaut miles runAvg speedWind from/ knotsBaromVisibWave heightAir tempDewpointWater temp
2017-Sep-19 22:24N 48°38' W 005°15'3 8.2
2017-Sep-19 21:59N 48°39' W 005°11'4 8.3
2017-Sep-19 21:30N 48°41' W 005°05'4 8.3
2017-Sep-19 21:00N 48°42' W 004°59'4 8.4
2017-Sep-19 20:30N 48°44' W 004°54'4 8.1
2017-Sep-19 19:58N 48°46' W 004°47'81 3.9
2017-Sep-18 23:12N 49°47' W 003°25'1 4.7
2017-Sep-18 22:56N 49°48' W 003°23'16 5.4
2017-Sep-18 19:53N 49°56' W 003°01'2 4.5
2017-Sep-18 19:25N 49°56' W 002°58'2 4.0
2017-Sep-18 18:59N 49°57' W 002°56'32 4.3
2017-Sep-18 11:39N 49°53' W 002°07'1 6.8
2017-Sep-18 11:29N 49°53' W 002°05'3 7.0
2017-Sep-18 11:00N 49°51' W 002°01'4 6.6
2017-Sep-18 10:27N 49°49' W 001°56'3 6.3
2017-Sep-18 10:00N 49°48' W 001°52'3 6.0
2017-Sep-18 09:30N 49°46' W 001°48'3 5.4
2017-Sep-18 09:00N 49°44' W 001°45'3 5.3
2017-Sep-18 08:30N 49°42' W 001°42'3 5.8
2017-Sep-18 08:00N 49°40' W 001°39'2 4.7
2017-Sep-18 07:30N 49°38' W 001°37'0 0.2
2017-Sep-18 06:59N 49°38' W 001°37'0 0.0
2017-Sep-18 06:29N 49°38' W 001°37'0 0.0
2017-Sep-18 05:59N 49°38' W 001°37'0 0.0
2017-Sep-18 05:29N 49°38' W 001°37'0 0.0
2017-Sep-18 04:59N 49°38' W 001°37'0 0.0
2017-Sep-18 04:29N 49°38' W 001°37'0 0.0
2017-Sep-18 03:56N 49°38' W 001°37'0 0.0
2017-Sep-18 03:29N 49°38' W 001°37'0 0.0
2017-Sep-18 02:59N 49°38' W 001°37'0 0.0
2017-Sep-18 02:29N 49°38' W 001°37'0 0.0
2017-Sep-18 01:59N 49°38' W 001°37'0 0.0
2017-Sep-18 01:29N 49°38' W 001°37'0 0.0
2017-Sep-18 00:59N 49°38' W 001°37'0 0.0
2017-Sep-18 00:29N 49°38' W 001°37'0 0.0
2017-Sep-17 23:59N 49°38' W 001°37'0 0.0
2017-Sep-17 23:29N 49°38' W 001°37'0 0.0
2017-Sep-17 22:59N 49°38' W 001°37'0 0.0
2017-Sep-17 22:29N 49°38' W 001°37'0 0.0
2017-Sep-17 21:59N 49°38' W 001°37'0 0.0
2017-Sep-17 21:29N 49°38' W 001°37'0 0.0
2017-Sep-17 20:59N 49°38' W 001°37'0 0.0
2017-Sep-17 20:29N 49°38' W 001°37'0 0.0
2017-Sep-17 19:59N 49°38' W 001°37'0 0.0
2017-Sep-17 19:29N 49°38' W 001°37'0 0.0
2017-Sep-17 18:59N 49°38' W 001°37'0 0.0
2017-Sep-17 18:29N 49°38' W 001°37'0 0.0
2017-Sep-17 17:59N 49°38' W 001°37'0 0.0
2017-Sep-17 17:29N 49°38' W 001°37'0 0.0
2017-Sep-17 16:59N 49°38' W 001°37'0 0.0
2017-Sep-17 16:29N 49°38' W 001°37'0 0.0
2017-Sep-17 15:59N 49°38' W 001°37'0 0.0
2017-Sep-17 15:29N 49°38' W 001°37'0 0.0
2017-Sep-17 14:59N 49°38' W 001°37'0 0.0
2017-Sep-17 14:29N 49°38' W 001°37'0 0.0
2017-Sep-17 13:59N 49°38' W 001°37'0 0.0
2017-Sep-17 13:29N 49°38' W 001°37'0 0.0
2017-Sep-17 12:59N 49°38' W 001°37'0 0.0
2017-Sep-17 12:29N 49°38' W 001°37'0 0.0
2017-Sep-17 11:59N 49°38' W 001°37'0 0.0
2017-Sep-17 11:26N 49°38' W 001°37'0 0.0
2017-Sep-17 10:59N 49°38' W 001°37'0 0.0
2017-Sep-17 10:29N 49°38' W 001°37'0 0.0
2017-Sep-17 09:56N 49°38' W 001°37'0 0.0
2017-Sep-17 09:26N 49°38' W 001°37'0 0.0
2017-Sep-17 08:59N 49°38' W 001°37'0 0.0
2017-Sep-17 08:29N 49°38' W 001°37'0 0.0
2017-Sep-17 07:59N 49°38' W 001°37'0 0.0
2017-Sep-17 07:29N 49°38' W 001°37'0 0.0
2017-Sep-17 06:59N 49°38' W 001°37'0 0.0
2017-Sep-17 06:29N 49°38' W 001°37'0 0.0
2017-Sep-17 05:59N 49°38' W 001°37'0 0.0
2017-Sep-17 05:29N 49°38' W 001°37'0 0.0
2017-Sep-17 04:59N 49°38' W 001°37'0 0.0
2017-Sep-17 04:29N 49°38' W 001°37'0 0.0
2017-Sep-17 03:59N 49°38' W 001°37'0 0.0
2017-Sep-17 03:29N 49°38' W 001°37'0 0.0
2017-Sep-17 02:59N 49°38' W 001°37'0 0.0
2017-Sep-15 23:26N 49°38' W 001°37'0 0.0
2017-Sep-15 22:59N 49°38' W 001°37'0 0.0
2017-Sep-15 22:29N 49°38' W 001°37'0 0.0
2017-Sep-15 21:59N 49°38' W 001°37'0 0.0
2017-Sep-15 21:29N 49°38' W 001°37'0 0.0
2017-Sep-15 20:59N 49°38' W 001°37'0 0.0
2017-Sep-15 20:26N 49°38' W 001°37'0 0.0
2017-Sep-15 19:59N 49°38' W 001°37'0 0.0
2017-Sep-15 19:29N 49°38' W 001°37'0 0.0
2017-Sep-15 18:59N 49°38' W 001°37'0 0.0
2017-Sep-15 18:29N 49°38' W 001°37'0 0.0
2017-Sep-15 17:59N 49°38' W 001°37'0 0.0
2017-Sep-15 17:29N 49°38' W 001°37'0 0.0
2017-Sep-15 16:59N 49°38' W 001°37'0 0.0
2017-Sep-15 16:26N 49°38' W 001°37'0 0.0
2017-Sep-15 15:59N 49°38' W 001°37'0 0.0
2017-Sep-15 15:29N 49°38' W 001°37'0 0.0
2017-Sep-15 14:59N 49°38' W 001°37'0 0.0
2017-Sep-15 14:29N 49°38' W 001°37'0 0.0
2017-Sep-15 13:59N 49°38' W 001°37'0 0.0
2017-Sep-15 13:29N 49°38' W 001°37'0 0.0
2017-Sep-15 12:59N 49°38' W 001°37'0 0.0
2017-Sep-15 12:29N 49°38' W 001°37'0 0.0
2017-Sep-15 11:59N 49°38' W 001°37'0 0.0
2017-Sep-15 11:29N 49°38' W 001°37'0 0.0
2017-Sep-15 10:59N 49°38' W 001°37'0 0.0
2017-Sep-15 10:29N 49°38' W 001°37'0 0.0
2017-Sep-15 09:59N 49°38' W 001°37'0 0.0
2017-Sep-15 09:29N 49°38' W 001°37'0 0.0
2017-Sep-15 08:59N 49°38' W 001°37'0 0.0
2017-Sep-15 08:29N 49°38' W 001°37'0 0.0
2017-Sep-15 07:59N 49°38' W 001°37'0 0.0
2017-Sep-15 07:29N 49°38' W 001°37'0 0.0
2017-Sep-15 06:59N 49°38' W 001°37'0 0.0
2017-Sep-15 06:29N 49°38' W 001°37'0 0.0
2017-Sep-15 05:59N 49°38' W 001°37'0 0.0
2017-Sep-15 05:29N 49°38' W 001°37'0 0.0
2017-Sep-15 04:59N 49°38' W 001°37'0 0.0
2017-Sep-15 04:29N 49°38' W 001°37'0 0.0
2017-Sep-15 03:59N 49°38' W 001°37'0 0.0
2017-Sep-15 03:29N 49°38' W 001°37'0 0.0
2017-Sep-15 02:59N 49°38' W 001°37'0 0.0
2017-Sep-15 02:29N 49°38' W 001°37'0 0.0
2017-Sep-15 01:59N 49°38' W 001°37'0 0.0
2017-Sep-15 01:29N 49°38' W 001°37'0 0.0
2017-Sep-15 00:53N 49°38' W 001°37'0 0.0
2017-Sep-15 00:29N 49°38' W 001°37'0 0.0
2017-Sep-14 23:59N 49°38' W 001°37'0 0.0
2017-Sep-14 23:26N 49°38' W 001°37'0 0.0
2017-Sep-14 22:59N 49°38' W 001°37'0 0.0
2017-Sep-14 22:29N 49°38' W 001°37'0 0.0
2017-Sep-14 21:59N 49°38' W 001°37'0 0.0
2017-Sep-14 21:29N 49°38' W 001°37'0 0.0
2017-Sep-14 20:59N 49°38' W 001°37'0 0.0
2017-Sep-14 20:29N 49°38' W 001°37'0 0.0
2017-Sep-14 19:59N 49°38' W 001°37'0 0.0
2017-Sep-14 19:29N 49°38' W 001°37'0 0.0
2017-Sep-14 18:59N 49°38' W 001°37'0 0.0
2017-Sep-14 18:29N 49°38' W 001°37'0 0.0
2017-Sep-14 17:59N 49°38' W 001°37'0 0.0
2017-Sep-14 17:23N 49°38' W 001°37'0 0.0
2017-Sep-14 16:59N 49°38' W 001°37'0 0.0
2017-Sep-14 16:29N 49°38' W 001°37'0 0.0
2017-Sep-14 15:59N 49°38' W 001°37'0 0.0
2017-Sep-14 15:29N 49°38' W 001°37'0 0.0
2017-Sep-14 14:59N 49°38' W 001°37'0 0.0
2017-Sep-14 14:26N 49°38' W 001°37'0 0.0
2017-Sep-14 13:59N 49°38' W 001°37'0 0.0
2017-Sep-14 13:29N 49°38' W 001°37'0 0.0
2017-Sep-14 12:59N 49°38' W 001°37'0 0.0
2017-Sep-14 12:26N 49°38' W 001°37'0 0.0
2017-Sep-14 11:59N 49°38' W 001°37'0 0.0
2017-Sep-14 11:29N 49°38' W 001°37'0 0.0
2017-Sep-14 10:50N 49°38' W 001°37'0 0.0
2017-Sep-14 10:29N 49°38' W 001°37'0 0.0
2017-Sep-14 09:59N 49°38' W 001°37'0 0.0
2017-Sep-14 09:29N 49°38' W 001°37'0 0.0
2017-Sep-14 08:59N 49°38' W 001°37'0 0.0
2017-Sep-14 08:29N 49°38' W 001°37'0 0.0
2017-Sep-14 07:59N 49°38' W 001°37'0 0.0
2017-Sep-14 07:29N 49°38' W 001°37'0 0.0
2017-Sep-14 06:59N 49°38' W 001°37'0 0.0
2017-Sep-14 06:29N 49°38' W 001°37'0 0.0
2017-Sep-14 05:59N 49°38' W 001°37'0 0.0
2017-Sep-14 05:29N 49°38' W 001°37'0 0.0
2017-Sep-14 04:59N 49°38' W 001°37'0 0.0
2017-Sep-14 04:29N 49°38' W 001°37'0 0.0
2017-Sep-14 03:59N 49°38' W 001°37'0 0.0
2017-Sep-14 03:20N 49°38' W 001°37'0 0.0
2017-Sep-14 02:59N 49°38' W 001°37'0 0.0
2017-Sep-14 02:29N 49°38' W 001°37'0 0.0
2017-Sep-14 01:59N 49°38' W 001°37'0 0.0
2017-Sep-14 01:29N 49°38' W 001°37'0 0.0
2017-Sep-14 00:59N 49°38' W 001°37'0 0.0
2017-Sep-14 00:29N 49°38' W 001°37'0 0.0
2017-Sep-13 23:59N 49°38' W 001°37'0 0.0
2017-Sep-13 23:29N 49°38' W 001°37'0 0.0
2017-Sep-13 22:59N 49°38' W 001°37'0 0.0
2017-Sep-13 22:29N 49°38' W 001°37'0 0.0
2017-Sep-13 21:59N 49°38' W 001°37'0 0.0
2017-Sep-13 21:26N 49°38' W 001°37'0 0.0
2017-Sep-13 20:59N 49°38' W 001°37'0 0.0
2017-Sep-13 20:29N 49°38' W 001°37'0 0.0
2017-Sep-13 19:59N 49°38' W 001°37'0 0.0
2017-Sep-13 19:29N 49°38' W 001°37'0 0.0
2017-Sep-13 18:53N 49°38' W 001°37'0 0.0
2017-Sep-13 18:26N 49°38' W 001°37'0 0.0
2017-Sep-13 17:59N 49°38' W 001°37'0 0.0
2017-Sep-13 17:29N 49°38' W 001°37'0 0.0
2017-Sep-13 16:59N 49°38' W 001°37'0 0.0
2017-Sep-13 16:29N 49°38' W 001°37'0 0.0
2017-Sep-13 15:59N 49°38' W 001°37'0 0.0
2017-Sep-13 15:29N 49°38' W 001°37'0 0.0
2017-Sep-13 14:59N 49°38' W 001°37'0 0.0
2017-Sep-13 14:26N 49°38' W 001°37'0 0.0
2017-Sep-13 13:56N 49°38' W 001°37'0 0.0
2017-Sep-13 13:29N 49°38' W 001°37'0 0.0
2017-Sep-13 12:59N 49°38' W 001°37'0 0.0
2017-Sep-13 12:29N 49°38' W 001°37'0 0.0
2017-Sep-13 11:59N 49°38' W 001°37'0 0.0
2017-Sep-13 11:29N 49°38' W 001°37'0 0.0
2017-Sep-13 10:59N 49°38' W 001°37'0 0.0
2017-Sep-13 10:29N 49°38' W 001°37'0 0.0
2017-Sep-13 09:59N 49°38' W 001°37'0 0.0
2017-Sep-13 09:29N 49°38' W 001°37'0 0.0
2017-Sep-13 08:59N 49°38' W 001°37'0 0.0
2017-Sep-13 08:29N 49°38' W 001°37'0 0.0
2017-Sep-13 07:59N 49°38' W 001°37'0 0.0
2017-Sep-13 07:29N 49°38' W 001°37'0 0.0
2017-Sep-13 06:56N 49°38' W 001°37'0 0.0
2017-Sep-13 06:29N 49°38' W 001°37'0 0.0
2017-Sep-13 05:59N 49°38' W 001°37'0 0.0
2017-Sep-13 05:29N 49°38' W 001°37'0 0.0
2017-Sep-13 04:59N 49°38' W 001°37'0 0.0
2017-Sep-13 04:29N 49°38' W 001°37'0 0.0
2017-Sep-13 03:59N 49°38' W 001°37'0 0.0
2017-Sep-13 03:29N 49°38' W 001°37'0 0.0
2017-Sep-13 02:59N 49°38' W 001°37'0 0.0
2017-Sep-13 02:29N 49°38' W 001°37'0 0.0
2017-Sep-13 01:59N 49°38' W 001°37'0 0.0
2017-Sep-13 01:29N 49°38' W 001°37'0 0.0
2017-Sep-13 00:59N 49°38' W 001°37'0 0.0
2017-Sep-13 00:29N 49°38' W 001°37'0 0.0
2017-Sep-12 23:59N 49°38' W 001°37'0 0.0
2017-Sep-12 23:29N 49°38' W 001°37'0 0.0
2017-Sep-12 22:59N 49°38' W 001°37'0 0.0
2017-Sep-12 22:29N 49°38' W 001°37'0 0.0
2017-Sep-12 21:59N 49°38' W 001°37'0 0.0
2017-Sep-12 21:29N 49°38' W 001°37'0 0.0
2017-Sep-12 20:59N 49°38' W 001°37'0 0.0
2017-Sep-12 20:29N 49°38' W 001°37'0 0.0
2017-Sep-12 19:59N 49°38' W 001°37'0 0.0
2017-Sep-12 19:26N 49°38' W 001°37'0 0.0
2017-Sep-12 18:59N 49°38' W 001°37'0 0.0
2017-Sep-12 18:29N 49°38' W 001°37'0 0.0
2017-Sep-12 17:59N 49°38' W 001°37'0 0.0
2017-Sep-12 17:26N 49°38' W 001°37'0 0.0
2017-Sep-12 16:59N 49°38' W 001°37'0 0.0
2017-Sep-12 16:29N 49°38' W 001°37'0 0.0
2017-Sep-12 15:59N 49°38' W 001°37'0 0.0
2017-Sep-12 15:29N 49°38' W 001°37'0 0.0
2017-Sep-12 14:59N 49°38' W 001°37'0 0.0
2017-Sep-12 14:29N 49°38' W 001°37'0 0.0
2017-Sep-12 13:59N 49°38' W 001°37'0 0.0
2017-Sep-12 13:29N 49°38' W 001°37'0 0.0
2017-Sep-12 12:59N 49°38' W 001°37'0 0.0
2017-Sep-12 12:29N 49°38' W 001°37'0 0.0
2017-Sep-12 11:59N 49°38' W 001°37'0 0.0
2017-Sep-12 11:30N 49°38' W 001°37'0 0.0
2017-Sep-12 11:01N 49°38' W 001°37'1 1.2
2017-Sep-12 10:31N 49°39' W 001°37'1 2.5
2017-Sep-12 10:00N 49°40' W 001°36'2 4.1
2017-Sep-12 09:30N 49°42' W 001°35'1 1.6
2017-Sep-12 09:01N 49°42' W 001°35'1 2.7
2017-Sep-12 08:30N 49°43' W 001°33'2 3.2
2017-Sep-12 08:00N 49°44' W 001°31'2 4.1
2017-Sep-12 07:30N 49°46' W 001°29'2 4.7
2017-Sep-12 07:00N 49°47' W 001°25'3 5.1
2017-Sep-12 06:30N 49°49' W 001°23'3 5.3
2017-Sep-12 06:00N 49°50' W 001°19'3 5.5
2017-Sep-12 05:30N 49°52' W 001°16'3 5.6
2017-Sep-12 05:00N 49°54' W 001°13'14 2.8
2017-Sep-12 00:06N 50°06' W 001°05'1 3.1
2017-Sep-11 23:46N 50°07' W 001°07'33 2.6
2017-Sep-11 10:46N 50°40' W 000°58'1 3.4
2017-Sep-11 10:30N 50°41' W 000°59'3 5.8
2017-Sep-11 10:00N 50°43' W 001°02'3 6.6
2017-Sep-11 09:30N 50°45' W 001°05'2 4.8
2017-Sep-11 09:00N 50°48' W 001°07'0 0.2
2017-Sep-11 08:29N 50°48' W 001°07'0 0.0
2017-Sep-11 07:59N 50°48' W 001°07'0 0.0
2017-Sep-11 07:29N 50°48' W 001°07'0 0.0
2017-Sep-11 06:59N 50°48' W 001°07'0 0.0
2017-Sep-11 06:29N 50°48' W 001°07'0 0.0
2017-Sep-11 05:59N 50°48' W 001°07'0 0.0
2017-Sep-11 05:29N 50°48' W 001°07'0 0.0
2017-Sep-11 04:59N 50°48' W 001°07'0 0.0
2017-Sep-11 04:29N 50°48' W 001°07'0 0.0
2017-Sep-11 03:59N 50°48' W 001°07'0 0.0
2017-Sep-11 03:29N 50°48' W 001°07'0 0.0
2017-Sep-11 02:59N 50°48' W 001°07'0 0.0
2017-Sep-11 02:29N 50°48' W 001°07'0 0.0
2017-Sep-11 01:59N 50°48' W 001°07'0 0.0
2017-Sep-11 01:29N 50°48' W 001°07'0 0.0
2017-Sep-11 00:59N 50°48' W 001°07'0 0.0
2017-Sep-11 00:29N 50°48' W 001°07'0 0.0
2017-Sep-10 23:59N 50°48' W 001°07'0 0.0
2017-Sep-10 23:29N 50°48' W 001°07'0 0.0
2017-Sep-10 22:59N 50°48' W 001°07'0 0.0
2017-Sep-10 22:29N 50°48' W 001°07'0 0.0
2017-Sep-10 21:59N 50°48' W 001°07'0 0.0
2017-Sep-10 21:29N 50°48' W 001°07'0 0.0
2017-Sep-10 20:59N 50°48' W 001°07'0 0.0
2017-Sep-10 20:29N 50°48' W 001°07'0 0.0
2017-Sep-10 19:59N 50°48' W 001°07'0 0.0
2017-Sep-10 19:29N 50°48' W 001°07'0 0.0
2017-Sep-10 18:59N 50°48' W 001°07'0 0.0
2017-Sep-10 18:29N 50°48' W 001°07'0 0.0
2017-Sep-10 17:59N 50°48' W 001°07'0 0.0
2017-Sep-10 17:29N 50°48' W 001°07'0 0.0
2017-Sep-10 16:59N 50°48' W 001°07'0 0.0
2017-Sep-10 16:29N 50°48' W 001°07'0 0.0
2017-Sep-10 15:59N 50°48' W 001°07'0 0.0
2017-Sep-10 15:29N 50°48' W 001°07'0 0.0
2017-Sep-10 14:59N 50°48' W 001°07'0 0.0
2017-Sep-10 13:59N 50°48' W 001°07'0 0.0
2017-Sep-10 13:29N 50°48' W 001°07'0 0.0
2017-Sep-10 12:59N 50°48' W 001°07'0 0.0
2017-Sep-10 12:29N 50°48' W 001°07'0 0.0
2017-Sep-10 11:59N 50°48' W 001°07'0 0.0
2017-Sep-10 11:29N 50°48' W 001°07'0 0.0
2017-Sep-10 10:59N 50°48' W 001°07'0 0.0
2017-Sep-10 10:29N 50°48' W 001°07'0 0.0
2017-Sep-10 09:59N 50°48' W 001°07'0 0.0
2017-Sep-10 09:29N 50°48' W 001°07'0 0.0
2017-Sep-10 08:59N 50°48' W 001°07'0 0.0
2017-Sep-10 08:29N 50°48' W 001°07'0 0.0
2017-Sep-10 07:59N 50°48' W 001°07'0 0.0
2017-Sep-10 07:29N 50°48' W 001°07'0 0.0
2017-Sep-10 06:59N 50°48' W 001°07'0 0.0
2017-Sep-10 06:29N 50°48' W 001°07'0 0.0
2017-Sep-10 05:59N 50°48' W 001°07'0 0.0
2017-Sep-10 05:29N 50°48' W 001°07'0 0.0
2017-Sep-10 04:59N 50°48' W 001°07'0 0.0
2017-Sep-10 04:29N 50°48' W 001°07'0 0.0
2017-Sep-10 03:59N 50°48' W 001°07'0 0.0
2017-Sep-10 03:29N 50°48' W 001°07'0 0.0
2017-Sep-10 02:59N 50°48' W 001°07'0 0.0
2017-Sep-10 02:29N 50°48' W 001°07'0 0.0
2017-Sep-10 01:59N 50°48' W 001°07'0 0.0
2017-Sep-10 01:29N 50°48' W 001°07'0 0.0
2017-Sep-10 00:59N 50°48' W 001°07'0 0.0
2017-Sep-10 00:29N 50°48' W 001°07'0 0.0
2017-Sep-09 23:59N 50°48' W 001°07'0 0.0
2017-Sep-09 23:29N 50°48' W 001°07'0 0.0
2017-Sep-09 22:59N 50°48' W 001°07'0 0.0
2017-Sep-09 22:29N 50°48' W 001°07'  
Track history (hours):
 
Tides and Currents Weather Stations Pressure Air Temp Water Temp Dewpoint Dewpoint Depression Visibility Wind Speed Wind Dir Waves Ship Positions

Gunilla (Sweden)

Ship's website: http://www.gunilla.nu/engelsk/frameset_english.htm

Last reported at 2017-Sep-19 22:24 UTC. Time now 2017-Sep-22 17:04 UTC.
Position N 48°38' W 005°15'.

Length 49.4 m; beam 8.4 m; draft 2.7 m.

Type: Sailing vessel. MMSI: 265318000.

Date/timePositionNaut miles runAvg speedWind from/ knotsBaromVisibWave heightAir tempDewpointWater temp
2017-Sep-19 22:24N 48°38' W 005°15'3 8.2
2017-Sep-19 21:59N 48°39' W 005°11'4 8.3
2017-Sep-19 21:30N 48°41' W 005°05'4 8.3
2017-Sep-19 21:00N 48°42' W 004°59'4 8.4
2017-Sep-19 20:30N 48°44' W 004°54'4 8.1
2017-Sep-19 19:58N 48°46' W 004°47'81 3.9
2017-Sep-18 23:12N 49°47' W 003°25'1 4.7
2017-Sep-18 22:56N 49°48' W 003°23'16 5.4
2017-Sep-18 19:53N 49°56' W 003°01'2 4.5
2017-Sep-18 19:25N 49°56' W 002°58'2 4.0
2017-Sep-18 18:59N 49°57' W 002°56'32 4.3
2017-Sep-18 11:39N 49°53' W 002°07'1 6.8
2017-Sep-18 11:29N 49°53' W 002°05'3 7.0
2017-Sep-18 11:00N 49°51' W 002°01'4 6.6
2017-Sep-18 10:27N 49°49' W 001°56'3 6.3
2017-Sep-18 10:00N 49°48' W 001°52'3 6.0
2017-Sep-18 09:30N 49°46' W 001°48'3 5.4
2017-Sep-18 09:00N 49°44' W 001°45'3 5.3
2017-Sep-18 08:30N 49°42' W 001°42'3 5.8
2017-Sep-18 08:00N 49°40' W 001°39'2 4.7
2017-Sep-18 07:30N 49°38' W 001°37'0 0.2
2017-Sep-18 06:59N 49°38' W 001°37'0 0.0
2017-Sep-18 06:29N 49°38' W 001°37'0 0.0
2017-Sep-18 05:59N 49°38' W 001°37'0 0.0
2017-Sep-18 05:29N 49°38' W 001°37'0 0.0
2017-Sep-18 04:59N 49°38' W 001°37'0 0.0
2017-Sep-18 04:29N 49°38' W 001°37'0 0.0
2017-Sep-18 03:56N 49°38' W 001°37'0 0.0
2017-Sep-18 03:29N 49°38' W 001°37'0 0.0
2017-Sep-18 02:59N 49°38' W 001°37'0 0.0
2017-Sep-18 02:29N 49°38' W 001°37'0 0.0
2017-Sep-18 01:59N 49°38' W 001°37'0 0.0
2017-Sep-18 01:29N 49°38' W 001°37'0 0.0
2017-Sep-18 00:59N 49°38' W 001°37'0 0.0
2017-Sep-18 00:29N 49°38' W 001°37'0 0.0
2017-Sep-17 23:59N 49°38' W 001°37'0 0.0
2017-Sep-17 23:29N 49°38' W 001°37'0 0.0
2017-Sep-17 22:59N 49°38' W 001°37'0 0.0
2017-Sep-17 22:29N 49°38' W 001°37'0 0.0
2017-Sep-17 21:59N 49°38' W 001°37'0 0.0
2017-Sep-17 21:29N 49°38' W 001°37'0 0.0
2017-Sep-17 20:59N 49°38' W 001°37'0 0.0
2017-Sep-17 20:29N 49°38' W 001°37'0 0.0
2017-Sep-17 19:59N 49°38' W 001°37'0 0.0
2017-Sep-17 19:29N 49°38' W 001°37'0 0.0
2017-Sep-17 18:59N 49°38' W 001°37'0 0.0
2017-Sep-17 18:29N 49°38' W 001°37'0 0.0
2017-Sep-17 17:59N 49°38' W 001°37'0 0.0
2017-Sep-17 17:29N 49°38' W 001°37'0 0.0
2017-Sep-17 16:59N 49°38' W 001°37'0 0.0
2017-Sep-17 16:29N 49°38' W 001°37'0 0.0
2017-Sep-17 15:59N 49°38' W 001°37'0 0.0
2017-Sep-17 15:29N 49°38' W 001°37'0 0.0
2017-Sep-17 14:59N 49°38' W 001°37'0 0.0
2017-Sep-17 14:29N 49°38' W 001°37'0 0.0
2017-Sep-17 13:59N 49°38' W 001°37'0 0.0
2017-Sep-17 13:29N 49°38' W 001°37'0 0.0
2017-Sep-17 12:59N 49°38' W 001°37'0 0.0
2017-Sep-17 12:29N 49°38' W 001°37'0 0.0
2017-Sep-17 11:59N 49°38' W 001°37'0 0.0
2017-Sep-17 11:26N 49°38' W 001°37'0 0.0
2017-Sep-17 10:59N 49°38' W 001°37'0 0.0
2017-Sep-17 10:29N 49°38' W 001°37'0 0.0
2017-Sep-17 09:56N 49°38' W 001°37'0 0.0
2017-Sep-17 09:26N 49°38' W 001°37'0 0.0
2017-Sep-17 08:59N 49°38' W 001°37'0 0.0
2017-Sep-17 08:29N 49°38' W 001°37'0 0.0
2017-Sep-17 07:59N 49°38' W 001°37'0 0.0
2017-Sep-17 07:29N 49°38' W 001°37'0 0.0
2017-Sep-17 06:59N 49°38' W 001°37'0 0.0
2017-Sep-17 06:29N 49°38' W 001°37'0 0.0
2017-Sep-17 05:59N 49°38' W 001°37'0 0.0
2017-Sep-17 05:29N 49°38' W 001°37'0 0.0
2017-Sep-17 04:59N 49°38' W 001°37'0 0.0
2017-Sep-17 04:29N 49°38' W 001°37'0 0.0
2017-Sep-17 03:59N 49°38' W 001°37'0 0.0
2017-Sep-17 03:29N 49°38' W 001°37'0 0.0
2017-Sep-17 02:59N 49°38' W 001°37'0 0.0
2017-Sep-15 23:26N 49°38' W 001°37'0 0.0
2017-Sep-15 22:59N 49°38' W 001°37'0 0.0
2017-Sep-15 22:29N 49°38' W 001°37'0 0.0
2017-Sep-15 21:59N 49°38' W 001°37'0 0.0
2017-Sep-15 21:29N 49°38' W 001°37'0 0.0
2017-Sep-15 20:59N 49°38' W 001°37'0 0.0
2017-Sep-15 20:26N 49°38' W 001°37'0 0.0
2017-Sep-15 19:59N 49°38' W 001°37'0 0.0
2017-Sep-15 19:29N 49°38' W 001°37'0 0.0
2017-Sep-15 18:59N 49°38' W 001°37'0 0.0
2017-Sep-15 18:29N 49°38' W 001°37'0 0.0
2017-Sep-15 17:59N 49°38' W 001°37'0 0.0
2017-Sep-15 17:29N 49°38' W 001°37'0 0.0
2017-Sep-15 16:59N 49°38' W 001°37'0 0.0
2017-Sep-15 16:26N 49°38' W 001°37'0 0.0
2017-Sep-15 15:59N 49°38' W 001°37'0 0.0
2017-Sep-15 15:29N 49°38' W 001°37'0 0.0
2017-Sep-15 14:59N 49°38' W 001°37'0 0.0
2017-Sep-15 14:29N 49°38' W 001°37'0 0.0
2017-Sep-15 13:59N 49°38' W 001°37'0 0.0
2017-Sep-15 13:29N 49°38' W 001°37'0 0.0
2017-Sep-15 12:59N 49°38' W 001°37'0 0.0
2017-Sep-15 12:29N 49°38' W 001°37'0 0.0
2017-Sep-15 11:59N 49°38' W 001°37'0 0.0
2017-Sep-15 11:29N 49°38' W 001°37'0 0.0
2017-Sep-15 10:59N 49°38' W 001°37'0 0.0
2017-Sep-15 10:29N 49°38' W 001°37'0 0.0
2017-Sep-15 09:59N 49°38' W 001°37'0 0.0
2017-Sep-15 09:29N 49°38' W 001°37'0 0.0
2017-Sep-15 08:59N 49°38' W 001°37'0 0.0
2017-Sep-15 08:29N 49°38' W 001°37'0 0.0
2017-Sep-15 07:59N 49°38' W 001°37'0 0.0
2017-Sep-15 07:29N 49°38' W 001°37'0 0.0
2017-Sep-15 06:59N 49°38' W 001°37'0 0.0
2017-Sep-15 06:29N 49°38' W 001°37'0 0.0
2017-Sep-15 05:59N 49°38' W 001°37'0 0.0
2017-Sep-15 05:29N 49°38' W 001°37'0 0.0
2017-Sep-15 04:59N 49°38' W 001°37'0 0.0
2017-Sep-15 04:29N 49°38' W 001°37'0 0.0
2017-Sep-15 03:59N 49°38' W 001°37'0 0.0
2017-Sep-15 03:29N 49°38' W 001°37'0 0.0
2017-Sep-15 02:59N 49°38' W 001°37'0 0.0
2017-Sep-15 02:29N 49°38' W 001°37'0 0.0
2017-Sep-15 01:59N 49°38' W 001°37'0 0.0
2017-Sep-15 01:29N 49°38' W 001°37'0 0.0
2017-Sep-15 00:53N 49°38' W 001°37'0 0.0
2017-Sep-15 00:29N 49°38' W 001°37'0 0.0
2017-Sep-14 23:59N 49°38' W 001°37'0 0.0
2017-Sep-14 23:26N 49°38' W 001°37'0 0.0
2017-Sep-14 22:59N 49°38' W 001°37'0 0.0
2017-Sep-14 22:29N 49°38' W 001°37'0 0.0
2017-Sep-14 21:59N 49°38' W 001°37'0 0.0
2017-Sep-14 21:29N 49°38' W 001°37'0 0.0
2017-Sep-14 20:59N 49°38' W 001°37'0 0.0
2017-Sep-14 20:29N 49°38' W 001°37'0 0.0
2017-Sep-14 19:59N 49°38' W 001°37'0 0.0
2017-Sep-14 19:29N 49°38' W 001°37'0 0.0
2017-Sep-14 18:59N 49°38' W 001°37'0 0.0
2017-Sep-14 18:29N 49°38' W 001°37'0 0.0
2017-Sep-14 17:59N 49°38' W 001°37'0 0.0
2017-Sep-14 17:23N 49°38' W 001°37'0 0.0
2017-Sep-14 16:59N 49°38' W 001°37'0 0.0
2017-Sep-14 16:29N 49°38' W 001°37'0 0.0
2017-Sep-14 15:59N 49°38' W 001°37'0 0.0
2017-Sep-14 15:29N 49°38' W 001°37'0 0.0
2017-Sep-14 14:59N 49°38' W 001°37'0 0.0
2017-Sep-14 14:26N 49°38' W 001°37'0 0.0
2017-Sep-14 13:59N 49°38' W 001°37'0 0.0
2017-Sep-14 13:29N 49°38' W 001°37'0 0.0
2017-Sep-14 12:59N 49°38' W 001°37'0 0.0
2017-Sep-14 12:26N 49°38' W 001°37'0 0.0
2017-Sep-14 11:59N 49°38' W 001°37'0 0.0
2017-Sep-14 11:29N 49°38' W 001°37'0 0.0
2017-Sep-14 10:50N 49°38' W 001°37'0 0.0
2017-Sep-14 10:29N 49°38' W 001°37'0 0.0
2017-Sep-14 09:59N 49°38' W 001°37'0 0.0
2017-Sep-14 09:29N 49°38' W 001°37'0 0.0
2017-Sep-14 08:59N 49°38' W 001°37'0 0.0
2017-Sep-14 08:29N 49°38' W 001°37'0 0.0
2017-Sep-14 07:59N 49°38' W 001°37'0 0.0
2017-Sep-14 07:29N 49°38' W 001°37'0 0.0
2017-Sep-14 06:59N 49°38' W 001°37'0 0.0
2017-Sep-14 06:29N 49°38' W 001°37'0 0.0
2017-Sep-14 05:59N 49°38' W 001°37'0 0.0
2017-Sep-14 05:29N 49°38' W 001°37'0 0.0
2017-Sep-14 04:59N 49°38' W 001°37'0 0.0
2017-Sep-14 04:29N 49°38' W 001°37'0 0.0
2017-Sep-14 03:59N 49°38' W 001°37'0 0.0
2017-Sep-14 03:20N 49°38' W 001°37'0 0.0
2017-Sep-14 02:59N 49°38' W 001°37'0 0.0
2017-Sep-14 02:29N 49°38' W 001°37'0 0.0
2017-Sep-14 01:59N 49°38' W 001°37'0 0.0
2017-Sep-14 01:29N 49°38' W 001°37'0 0.0
2017-Sep-14 00:59N 49°38' W 001°37'0 0.0
2017-Sep-14 00:29N 49°38' W 001°37'0 0.0
2017-Sep-13 23:59N 49°38' W 001°37'0 0.0
2017-Sep-13 23:29N 49°38' W 001°37'0 0.0
2017-Sep-13 22:59N 49°38' W 001°37'0 0.0
2017-Sep-13 22:29N 49°38' W 001°37'0 0.0
2017-Sep-13 21:59N 49°38' W 001°37'0 0.0
2017-Sep-13 21:26N 49°38' W 001°37'0 0.0
2017-Sep-13 20:59N 49°38' W 001°37'0 0.0
2017-Sep-13 20:29N 49°38' W 001°37'0 0.0
2017-Sep-13 19:59N 49°38' W 001°37'0 0.0
2017-Sep-13 19:29N 49°38' W 001°37'0 0.0
2017-Sep-13 18:53N 49°38' W 001°37'0 0.0
2017-Sep-13 18:26N 49°38' W 001°37'0 0.0
2017-Sep-13 17:59N 49°38' W 001°37'0 0.0
2017-Sep-13 17:29N 49°38' W 001°37'0 0.0
2017-Sep-13 16:59N 49°38' W 001°37'0 0.0
2017-Sep-13 16:29N 49°38' W 001°37'0 0.0
2017-Sep-13 15:59N 49°38' W 001°37'0 0.0
2017-Sep-13 15:29N 49°38' W 001°37'0 0.0
2017-Sep-13 14:59N 49°38' W 001°37'0 0.0
2017-Sep-13 14:26N 49°38' W 001°37'0 0.0
2017-Sep-13 13:56N 49°38' W 001°37'0 0.0
2017-Sep-13 13:29N 49°38' W 001°37'0 0.0
2017-Sep-13 12:59N 49°38' W 001°37'0 0.0
2017-Sep-13 12:29N 49°38' W 001°37'0 0.0
2017-Sep-13 11:59N 49°38' W 001°37'0 0.0
2017-Sep-13 11:29N 49°38' W 001°37'0 0.0
2017-Sep-13 10:59N 49°38' W 001°37'0 0.0
2017-Sep-13 10:29N 49°38' W 001°37'0 0.0
2017-Sep-13 09:59N 49°38' W 001°37'0 0.0
2017-Sep-13 09:29N 49°38' W 001°37'0 0.0
2017-Sep-13 08:59N 49°38' W 001°37'0 0.0
2017-Sep-13 08:29N 49°38' W 001°37'0 0.0
2017-Sep-13 07:59N 49°38' W 001°37'0 0.0
2017-Sep-13 07:29N 49°38' W 001°37'0 0.0
2017-Sep-13 06:56N 49°38' W 001°37'0 0.0
2017-Sep-13 06:29N 49°38' W 001°37'0 0.0
2017-Sep-13 05:59N 49°38' W 001°37'0 0.0
2017-Sep-13 05:29N 49°38' W 001°37'0 0.0
2017-Sep-13 04:59N 49°38' W 001°37'0 0.0
2017-Sep-13 04:29N 49°38' W 001°37'0 0.0
2017-Sep-13 03:59N 49°38' W 001°37'0 0.0
2017-Sep-13 03:29N 49°38' W 001°37'0 0.0
2017-Sep-13 02:59N 49°38' W 001°37'0 0.0
2017-Sep-13 02:29N 49°38' W 001°37'0 0.0
2017-Sep-13 01:59N 49°38' W 001°37'0 0.0
2017-Sep-13 01:29N 49°38' W 001°37'0 0.0
2017-Sep-13 00:59N 49°38' W 001°37'0 0.0
2017-Sep-13 00:29N 49°38' W 001°37'0 0.0
2017-Sep-12 23:59N 49°38' W 001°37'0 0.0
2017-Sep-12 23:29N 49°38' W 001°37'0 0.0
2017-Sep-12 22:59N 49°38' W 001°37'0 0.0
2017-Sep-12 22:29N 49°38' W 001°37'0 0.0
2017-Sep-12 21:59N 49°38' W 001°37'0 0.0
2017-Sep-12 21:29N 49°38' W 001°37'0 0.0
2017-Sep-12 20:59N 49°38' W 001°37'0 0.0
2017-Sep-12 20:29N 49°38' W 001°37'0 0.0
2017-Sep-12 19:59N 49°38' W 001°37'0 0.0
2017-Sep-12 19:26N 49°38' W 001°37'0 0.0
2017-Sep-12 18:59N 49°38' W 001°37'0 0.0
2017-Sep-12 18:29N 49°38' W 001°37'0 0.0
2017-Sep-12 17:59N 49°38' W 001°37'0 0.0
2017-Sep-12 17:26N 49°38' W 001°37'0 0.0
2017-Sep-12 16:59N 49°38' W 001°37'0 0.0
2017-Sep-12 16:29N 49°38' W 001°37'0 0.0
2017-Sep-12 15:59N 49°38' W 001°37'0 0.0
2017-Sep-12 15:29N 49°38' W 001°37'0 0.0
2017-Sep-12 14:59N 49°38' W 001°37'0 0.0
2017-Sep-12 14:29N 49°38' W 001°37'0 0.0
2017-Sep-12 13:59N 49°38' W 001°37'0 0.0
2017-Sep-12 13:29N 49°38' W 001°37'0 0.0
2017-Sep-12 12:59N 49°38' W 001°37'0 0.0
2017-Sep-12 12:29N 49°38' W 001°37'0 0.0
2017-Sep-12 11:59N 49°38' W 001°37'0 0.0
2017-Sep-12 11:30N 49°38' W 001°37'0 0.0
2017-Sep-12 11:01N 49°38' W 001°37'1 1.2
2017-Sep-12 10:31N 49°39' W 001°37'1 2.5
2017-Sep-12 10:00N 49°40' W 001°36'2 4.1
2017-Sep-12 09:30N 49°42' W 001°35'1 1.6
2017-Sep-12 09:01N 49°42' W 001°35'1 2.7
2017-Sep-12 08:30N 49°43' W 001°33'2 3.2
2017-Sep-12 08:00N 49°44' W 001°31'2 4.1
2017-Sep-12 07:30N 49°46' W 001°29'2 4.7
2017-Sep-12 07:00N 49°47' W 001°25'3 5.1
2017-Sep-12 06:30N 49°49' W 001°23'3 5.3
2017-Sep-12 06:00N 49°50' W 001°19'3 5.5
2017-Sep-12 05:30N 49°52' W 001°16'3 5.6
2017-Sep-12 05:00N 49°54' W 001°13'14 2.8
2017-Sep-12 00:06N 50°06' W 001°05'1 3.1
2017-Sep-11 23:46N 50°07' W 001°07'33 2.6
2017-Sep-11 10:46N 50°40' W 000°58'1 3.4
2017-Sep-11 10:30N 50°41' W 000°59'3 5.8
2017-Sep-11 10:00N 50°43' W 001°02'3 6.6
2017-Sep-11 09:30N 50°45' W 001°05'2 4.8
2017-Sep-11 09:00N 50°48' W 001°07'0 0.2
2017-Sep-11 08:29N 50°48' W 001°07'0 0.0
2017-Sep-11 07:59N 50°48' W 001°07'0 0.0
2017-Sep-11 07:29N 50°48' W 001°07'0 0.0
2017-Sep-11 06:59N 50°48' W 001°07'0 0.0
2017-Sep-11 06:29N 50°48' W 001°07'0 0.0
2017-Sep-11 05:59N 50°48' W 001°07'0 0.0
2017-Sep-11 05:29N 50°48' W 001°07'0 0.0
2017-Sep-11 04:59N 50°48' W 001°07'0 0.0
2017-Sep-11 04:29N 50°48' W 001°07'0 0.0
2017-Sep-11 03:59N 50°48' W 001°07'0 0.0
2017-Sep-11 03:29N 50°48' W 001°07'0 0.0
2017-Sep-11 02:59N 50°48' W 001°07'0 0.0
2017-Sep-11 02:29N 50°48' W 001°07'0 0.0
2017-Sep-11 01:59N 50°48' W 001°07'0 0.0
2017-Sep-11 01:29N 50°48' W 001°07'0 0.0
2017-Sep-11 00:59N 50°48' W 001°07'0 0.0
2017-Sep-11 00:29N 50°48' W 001°07'0 0.0
2017-Sep-10 23:59N 50°48' W 001°07'0 0.0
2017-Sep-10 23:29N 50°48' W 001°07'0 0.0
2017-Sep-10 22:59N 50°48' W 001°07'0 0.0
2017-Sep-10 22:29N 50°48' W 001°07'0 0.0
2017-Sep-10 21:59N 50°48' W 001°07'0 0.0
2017-Sep-10 21:29N 50°48' W 001°07'0 0.0
2017-Sep-10 20:59N 50°48' W 001°07'0 0.0
2017-Sep-10 20:29N 50°48' W 001°07'0 0.0
2017-Sep-10 19:59N 50°48' W 001°07'0 0.0
2017-Sep-10 19:29N 50°48' W 001°07'0 0.0
2017-Sep-10 18:59N 50°48' W 001°07'0 0.0
2017-Sep-10 18:29N 50°48' W 001°07'0 0.0
2017-Sep-10 17:59N 50°48' W 001°07'0 0.0
2017-Sep-10 17:29N 50°48' W 001°07'0 0.0
2017-Sep-10 16:59N 50°48' W 001°07'0 0.0
2017-Sep-10 16:29N 50°48' W 001°07'0 0.0
2017-Sep-10 15:59N 50°48' W 001°07'0 0.0
2017-Sep-10 15:29N 50°48' W 001°07'0 0.0
2017-Sep-10 14:59N 50°48' W 001°07'0 0.0
2017-Sep-10 13:59N 50°48' W 001°07'0 0.0
2017-Sep-10 13:29N 50°48' W 001°07'0 0.0
2017-Sep-10 12:59N 50°48' W 001°07'0 0.0
2017-Sep-10 12:29N 50°48' W 001°07'0 0.0
2017-Sep-10 11:59N 50°48' W 001°07'0 0.0
2017-Sep-10 11:29N 50°48' W 001°07'0 0.0
2017-Sep-10 10:59N 50°48' W 001°07'0 0.0
2017-Sep-10 10:29N 50°48' W 001°07'0 0.0
2017-Sep-10 09:59N 50°48' W 001°07'0 0.0
2017-Sep-10 09:29N 50°48' W 001°07'0 0.0
2017-Sep-10 08:59N 50°48' W 001°07'0 0.0
2017-Sep-10 08:29N 50°48' W 001°07'0 0.0
2017-Sep-10 07:59N 50°48' W 001°07'0 0.0
2017-Sep-10 07:29N 50°48' W 001°07'0 0.0
2017-Sep-10 06:59N 50°48' W 001°07'0 0.0
2017-Sep-10 06:29N 50°48' W 001°07'0 0.0
2017-Sep-10 05:59N 50°48' W 001°07'0 0.0
2017-Sep-10 05:29N 50°48' W 001°07'0 0.0
2017-Sep-10 04:59N 50°48' W 001°07'0 0.0
2017-Sep-10 04:29N 50°48' W 001°07'0 0.0
2017-Sep-10 03:59N 50°48' W 001°07'0 0.0
2017-Sep-10 03:29N 50°48' W 001°07'0 0.0
2017-Sep-10 02:59N 50°48' W 001°07'0 0.0
2017-Sep-10 02:29N 50°48' W 001°07'0 0.0
2017-Sep-10 01:59N 50°48' W 001°07'0 0.0
2017-Sep-10 01:29N 50°48' W 001°07'0 0.0
2017-Sep-10 00:59N 50°48' W 001°07'0 0.0
2017-Sep-10 00:29N 50°48' W 001°07'0 0.0
2017-Sep-09 23:59N 50°48' W 001°07'0 0.0
2017-Sep-09 23:29N 50°48' W 001°07'0 0.0
2017-Sep-09 22:59N 50°48' W 001°07'0 0.0
2017-Sep-09 22:29N 50°48' W 001°07'  

Dump ship's entire track history